sensor_id;sensor_type;location;lat;lon;timestamp;P1;durP1;ratioP1;P2;durP2;ratioP2
16171;SDS011;8192;53.596;10.166;2023-07-31T00:02:01;29.73;;;21.98;;
16171;SDS011;8192;53.596;10.166;2023-07-31T00:04:29;24.17;;;21.95;;
16171;SDS011;8192;53.596;10.166;2023-07-31T00:06:57;23.38;;;21.00;;
16171;SDS011;8192;53.596;10.166;2023-07-31T00:09:24;23.92;;;21.70;;
16171;SDS011;8192;53.596;10.166;2023-07-31T00:11:51;24.70;;;22.13;;
16171;SDS011;8192;53.596;10.166;2023-07-31T00:14:18;29.45;;;22.08;;
16171;SDS011;8192;53.596;10.166;2023-07-31T00:16:45;24.63;;;21.60;;
16171;SDS011;8192;53.596;10.166;2023-07-31T00:19:12;23.85;;;21.48;;
16171;SDS011;8192;53.596;10.166;2023-07-31T00:21:39;23.75;;;21.25;;
16171;SDS011;8192;53.596;10.166;2023-07-31T00:24:07;23.80;;;21.40;;
16171;SDS011;8192;53.596;10.166;2023-07-31T00:26:34;24.13;;;21.30;;
16171;SDS011;8192;53.596;10.166;2023-07-31T00:29:01;23.27;;;21.27;;
16171;SDS011;8192;53.596;10.166;2023-07-31T00:31:28;24.05;;;21.58;;
16171;SDS011;8192;53.596;10.166;2023-07-31T00:33:55;27.08;;;21.25;;
16171;SDS011;8192;53.596;10.166;2023-07-31T00:36:22;25.58;;;21.73;;
16171;SDS011;8192;53.596;10.166;2023-07-31T00:38:49;24.17;;;21.55;;
16171;SDS011;8192;53.596;10.166;2023-07-31T00:41:17;23.75;;;21.60;;
16171;SDS011;8192;53.596;10.166;2023-07-31T00:43:44;23.92;;;21.60;;
16171;SDS011;8192;53.596;10.166;2023-07-31T00:46:11;23.63;;;21.38;;
16171;SDS011;8192;53.596;10.166;2023-07-31T00:48:39;23.90;;;21.17;;
16171;SDS011;8192;53.596;10.166;2023-07-31T00:51:07;29.98;;;21.73;;
16171;SDS011;8192;53.596;10.166;2023-07-31T00:53:34;23.95;;;21.45;;
16171;SDS011;8192;53.596;10.166;2023-07-31T00:56:01;26.40;;;21.55;;
16171;SDS011;8192;53.596;10.166;2023-07-31T00:58:30;26.33;;;21.23;;
16171;SDS011;8192;53.596;10.166;2023-07-31T01:00:58;23.88;;;21.33;;
16171;SDS011;8192;53.596;10.166;2023-07-31T01:03:24;24.13;;;21.20;;
16171;SDS011;8192;53.596;10.166;2023-07-31T01:05:53;24.45;;;21.92;;
16171;SDS011;8192;53.596;10.166;2023-07-31T01:08:28;26.63;;;21.92;;
16171;SDS011;8192;53.596;10.166;2023-07-31T01:11:00;24.02;;;21.38;;
16171;SDS011;8192;53.596;10.166;2023-07-31T01:13:35;26.50;;;22.25;;
16171;SDS011;8192;53.596;10.166;2023-07-31T01:16:01;24.10;;;21.25;;
16171;SDS011;8192;53.596;10.166;2023-07-31T01:18:28;24.05;;;21.45;;
16171;SDS011;8192;53.596;10.166;2023-07-31T01:20:57;24.00;;;21.35;;
16171;SDS011;8192;53.596;10.166;2023-07-31T01:23:42;24.92;;;21.75;;
16171;SDS011;8192;53.596;10.166;2023-07-31T01:26:24;23.95;;;21.33;;
16171;SDS011;8192;53.596;10.166;2023-07-31T01:28:56;23.20;;;21.20;;
16171;SDS011;8192;53.596;10.166;2023-07-31T01:31:28;25.50;;;21.60;;
16171;SDS011;8192;53.596;10.166;2023-07-31T01:33:59;24.75;;;21.90;;
16171;SDS011;8192;53.596;10.166;2023-07-31T01:36:27;29.67;;;21.55;;
16171;SDS011;8192;53.596;10.166;2023-07-31T01:38:57;24.30;;;21.75;;
16171;SDS011;8192;53.596;10.166;2023-07-31T01:41:27;24.30;;;21.65;;
16171;SDS011;8192;53.596;10.166;2023-07-31T01:43:54;24.67;;;21.90;;
16171;SDS011;8192;53.596;10.166;2023-07-31T01:46:21;27.85;;;21.80;;
16171;SDS011;8192;53.596;10.166;2023-07-31T01:48:48;26.42;;;21.55;;
16171;SDS011;8192;53.596;10.166;2023-07-31T01:51:15;25.00;;;21.80;;
16171;SDS011;8192;53.596;10.166;2023-07-31T01:53:42;27.35;;;21.83;;
16171;SDS011;8192;53.596;10.166;2023-07-31T01:56:09;23.85;;;21.42;;
16171;SDS011;8192;53.596;10.166;2023-07-31T01:58:37;26.50;;;21.80;;
16171;SDS011;8192;53.596;10.166;2023-07-31T02:01:04;24.08;;;21.70;;
16171;SDS011;8192;53.596;10.166;2023-07-31T02:03:31;24.70;;;22.02;;
16171;SDS011;8192;53.596;10.166;2023-07-31T02:05:58;25.48;;;22.08;;
16171;SDS011;8192;53.596;10.166;2023-07-31T02:08:25;29.65;;;21.40;;
16171;SDS011;8192;53.596;10.166;2023-07-31T02:10:53;25.45;;;21.85;;
16171;SDS011;8192;53.596;10.166;2023-07-31T02:13:20;27.48;;;22.50;;
16171;SDS011;8192;53.596;10.166;2023-07-31T02:15:49;24.30;;;21.90;;
16171;SDS011;8192;53.596;10.166;2023-07-31T02:18:16;31.77;;;22.55;;
16171;SDS011;8192;53.596;10.166;2023-07-31T02:20:43;24.90;;;22.20;;
16171;SDS011;8192;53.596;10.166;2023-07-31T02:23:14;26.00;;;21.85;;
16171;SDS011;8192;53.596;10.166;2023-07-31T02:25:41;24.38;;;21.70;;
16171;SDS011;8192;53.596;10.166;2023-07-31T02:28:08;24.70;;;21.85;;
16171;SDS011;8192;53.596;10.166;2023-07-31T02:30:36;24.25;;;21.90;;
16171;SDS011;8192;53.596;10.166;2023-07-31T02:33:04;27.42;;;21.73;;
16171;SDS011;8192;53.596;10.166;2023-07-31T02:35:31;25.35;;;22.17;;
16171;SDS011;8192;53.596;10.166;2023-07-31T02:37:58;26.95;;;22.42;;
16171;SDS011;8192;53.596;10.166;2023-07-31T02:40:25;24.58;;;21.73;;
16171;SDS011;8192;53.596;10.166;2023-07-31T02:42:53;28.70;;;21.95;;
16171;SDS011;8192;53.596;10.166;2023-07-31T02:45:20;23.50;;;21.20;;
16171;SDS011;8192;53.596;10.166;2023-07-31T02:47:46;27.08;;;21.52;;
16171;SDS011;8192;53.596;10.166;2023-07-31T02:50:15;24.17;;;21.55;;
16171;SDS011;8192;53.596;10.166;2023-07-31T02:52:42;31.48;;;21.83;;
16171;SDS011;8192;53.596;10.166;2023-07-31T02:55:09;25.90;;;21.60;;
16171;SDS011;8192;53.596;10.166;2023-07-31T02:57:36;26.05;;;21.73;;
16171;SDS011;8192;53.596;10.166;2023-07-31T03:00:03;24.73;;;21.38;;
16171;SDS011;8192;53.596;10.166;2023-07-31T03:02:31;24.10;;;21.60;;
16171;SDS011;8192;53.596;10.166;2023-07-31T03:04:58;24.38;;;21.83;;
16171;SDS011;8192;53.596;10.166;2023-07-31T03:07:27;26.83;;;21.90;;
16171;SDS011;8192;53.596;10.166;2023-07-31T03:09:55;25.52;;;21.73;;
16171;SDS011;8192;53.596;10.166;2023-07-31T03:12:22;32.67;;;21.73;;
16171;SDS011;8192;53.596;10.166;2023-07-31T03:14:49;27.98;;;22.00;;
16171;SDS011;8192;53.596;10.166;2023-07-31T03:17:16;27.58;;;21.50;;
16171;SDS011;8192;53.596;10.166;2023-07-31T03:19:43;32.03;;;23.60;;
16171;SDS011;8192;53.596;10.166;2023-07-31T03:22:10;24.42;;;22.20;;
16171;SDS011;8192;53.596;10.166;2023-07-31T03:24:38;24.20;;;21.70;;
16171;SDS011;8192;53.596;10.166;2023-07-31T03:27:05;24.25;;;21.80;;
16171;SDS011;8192;53.596;10.166;2023-07-31T03:29:32;24.55;;;22.00;;
16171;SDS011;8192;53.596;10.166;2023-07-31T03:31:59;24.35;;;22.00;;
16171;SDS011;8192;53.596;10.166;2023-07-31T03:34:26;25.50;;;22.83;;
16171;SDS011;8192;53.596;10.166;2023-07-31T03:36:53;24.38;;;22.08;;
16171;SDS011;8192;53.596;10.166;2023-07-31T03:39:20;25.17;;;22.50;;
16171;SDS011;8192;53.596;10.166;2023-07-31T03:41:49;25.60;;;22.30;;
16171;SDS011;8192;53.596;10.166;2023-07-31T03:44:16;25.35;;;22.65;;
16171;SDS011;8192;53.596;10.166;2023-07-31T03:46:43;26.05;;;22.58;;
16171;SDS011;8192;53.596;10.166;2023-07-31T03:49:10;24.33;;;21.92;;
16171;SDS011;8192;53.596;10.166;2023-07-31T03:51:37;25.33;;;22.75;;
16171;SDS011;8192;53.596;10.166;2023-07-31T03:54:04;31.50;;;22.60;;
16171;SDS011;8192;53.596;10.166;2023-07-31T03:56:32;24.63;;;22.20;;
16171;SDS011;8192;53.596;10.166;2023-07-31T03:59:01;25.05;;;22.38;;
16171;SDS011;8192;53.596;10.166;2023-07-31T04:01:28;26.75;;;23.38;;
16171;SDS011;8192;53.596;10.166;2023-07-31T04:03:55;25.65;;;23.02;;
16171;SDS011;8192;53.596;10.166;2023-07-31T04:06:22;23.90;;;21.48;;
16171;SDS011;8192;53.596;10.166;2023-07-31T04:08:49;24.33;;;21.90;;
16171;SDS011;8192;53.596;10.166;2023-07-31T04:11:15;24.67;;;21.95;;
16171;SDS011;8192;53.596;10.166;2023-07-31T04:13:42;24.90;;;22.42;;
16171;SDS011;8192;53.596;10.166;2023-07-31T04:16:10;24.45;;;22.08;;
16171;SDS011;8192;53.596;10.166;2023-07-31T04:18:37;24.77;;;22.35;;
16171;SDS011;8192;53.596;10.166;2023-07-31T04:21:04;23.98;;;21.55;;
16171;SDS011;8192;53.596;10.166;2023-07-31T04:23:32;23.88;;;21.50;;
16171;SDS011;8192;53.596;10.166;2023-07-31T04:25:59;25.52;;;23.02;;
16171;SDS011;8192;53.596;10.166;2023-07-31T04:28:26;24.52;;;22.27;;
16171;SDS011;8192;53.596;10.166;2023-07-31T04:30:54;23.92;;;21.83;;
16171;SDS011;8192;53.596;10.166;2023-07-31T04:33:23;26.27;;;22.23;;
16171;SDS011;8192;53.596;10.166;2023-07-31T04:35:51;23.52;;;21.52;;
16171;SDS011;8192;53.596;10.166;2023-07-31T04:38:19;26.58;;;21.88;;
16171;SDS011;8192;53.596;10.166;2023-07-31T04:40:46;23.55;;;21.48;;
16171;SDS011;8192;53.596;10.166;2023-07-31T04:43:13;23.25;;;21.30;;
16171;SDS011;8192;53.596;10.166;2023-07-31T04:45:42;24.88;;;22.40;;
16171;SDS011;8192;53.596;10.166;2023-07-31T04:48:11;23.58;;;21.58;;
16171;SDS011;8192;53.596;10.166;2023-07-31T04:50:39;23.67;;;21.63;;
16171;SDS011;8192;53.596;10.166;2023-07-31T04:53:06;23.85;;;21.67;;
16171;SDS011;8192;53.596;10.166;2023-07-31T04:55:33;23.63;;;21.45;;
16171;SDS011;8192;53.596;10.166;2023-07-31T04:58:00;23.73;;;21.70;;
16171;SDS011;8192;53.596;10.166;2023-07-31T05:00:27;23.60;;;21.75;;
16171;SDS011;8192;53.596;10.166;2023-07-31T05:02:54;23.27;;;21.40;;
16171;SDS011;8192;53.596;10.166;2023-07-31T05:05:22;23.27;;;21.40;;
16171;SDS011;8192;53.596;10.166;2023-07-31T05:07:50;24.02;;;21.88;;
16171;SDS011;8192;53.596;10.166;2023-07-31T05:10:17;23.23;;;21.35;;
16171;SDS011;8192;53.596;10.166;2023-07-31T05:12:44;23.95;;;22.08;;
16171;SDS011;8192;53.596;10.166;2023-07-31T05:15:11;23.90;;;22.08;;
16171;SDS011;8192;53.596;10.166;2023-07-31T05:17:38;23.13;;;21.15;;
16171;SDS011;8192;53.596;10.166;2023-07-31T05:20:06;23.88;;;21.85;;
16171;SDS011;8192;53.596;10.166;2023-07-31T05:22:34;23.98;;;22.00;;
16171;SDS011;8192;53.596;10.166;2023-07-31T05:25:02;23.33;;;21.33;;
16171;SDS011;8192;53.596;10.166;2023-07-31T05:27:30;23.98;;;21.98;;
16171;SDS011;8192;53.596;10.166;2023-07-31T05:29:59;24.30;;;22.30;;
16171;SDS011;8192;53.596;10.166;2023-07-31T05:32:26;24.10;;;22.08;;
16171;SDS011;8192;53.596;10.166;2023-07-31T05:34:53;24.52;;;22.42;;
16171;SDS011;8192;53.596;10.166;2023-07-31T05:37:20;23.48;;;21.58;;
16171;SDS011;8192;53.596;10.166;2023-07-31T05:39:47;24.33;;;22.48;;
16171;SDS011;8192;53.596;10.166;2023-07-31T05:42:17;23.95;;;22.15;;
16171;SDS011;8192;53.596;10.166;2023-07-31T05:44:44;24.20;;;22.17;;
16171;SDS011;8192;53.596;10.166;2023-07-31T05:47:12;23.73;;;21.83;;
16171;SDS011;8192;53.596;10.166;2023-07-31T05:49:39;23.48;;;21.67;;
16171;SDS011;8192;53.596;10.166;2023-07-31T05:52:06;24.08;;;22.27;;
16171;SDS011;8192;53.596;10.166;2023-07-31T05:54:33;24.70;;;22.67;;
16171;SDS011;8192;53.596;10.166;2023-07-31T05:57:00;24.10;;;21.92;;
16171;SDS011;8192;53.596;10.166;2023-07-31T05:59:28;23.30;;;21.60;;
16171;SDS011;8192;53.596;10.166;2023-07-31T06:01:58;23.00;;;21.20;;
16171;SDS011;8192;53.596;10.166;2023-07-31T06:04:25;22.98;;;21.27;;
16171;SDS011;8192;53.596;10.166;2023-07-31T06:06:52;22.88;;;21.13;;
16171;SDS011;8192;53.596;10.166;2023-07-31T06:09:20;23.42;;;21.50;;
16171;SDS011;8192;53.596;10.166;2023-07-31T06:11:47;23.17;;;21.38;;
16171;SDS011;8192;53.596;10.166;2023-07-31T06:14:13;23.25;;;21.45;;
16171;SDS011;8192;53.596;10.166;2023-07-31T06:16:43;23.05;;;21.23;;
16171;SDS011;8192;53.596;10.166;2023-07-31T06:19:10;23.70;;;21.92;;
16171;SDS011;8192;53.596;10.166;2023-07-31T06:21:38;23.45;;;21.85;;
16171;SDS011;8192;53.596;10.166;2023-07-31T06:24:07;22.88;;;21.27;;
16171;SDS011;8192;53.596;10.166;2023-07-31T06:26:34;23.15;;;21.42;;
16171;SDS011;8192;53.596;10.166;2023-07-31T06:29:01;23.05;;;21.45;;
16171;SDS011;8192;53.596;10.166;2023-07-31T06:31:28;23.27;;;21.48;;
16171;SDS011;8192;53.596;10.166;2023-07-31T06:33:57;23.55;;;21.85;;
16171;SDS011;8192;53.596;10.166;2023-07-31T06:36:24;23.10;;;21.30;;
16171;SDS011;8192;53.596;10.166;2023-07-31T06:38:52;23.10;;;21.30;;
16171;SDS011;8192;53.596;10.166;2023-07-31T06:41:19;23.30;;;21.40;;
16171;SDS011;8192;53.596;10.166;2023-07-31T06:43:46;23.73;;;21.83;;
16171;SDS011;8192;53.596;10.166;2023-07-31T06:46:13;23.55;;;21.83;;
16171;SDS011;8192;53.596;10.166;2023-07-31T06:48:40;23.23;;;21.50;;
16171;SDS011;8192;53.596;10.166;2023-07-31T06:51:09;23.63;;;21.73;;
16171;SDS011;8192;53.596;10.166;2023-07-31T06:53:36;23.73;;;21.90;;
16171;SDS011;8192;53.596;10.166;2023-07-31T06:56:03;22.25;;;20.55;;
16171;SDS011;8192;53.596;10.166;2023-07-31T06:58:30;22.52;;;20.83;;
16171;SDS011;8192;53.596;10.166;2023-07-31T07:00:58;23.60;;;21.70;;
16171;SDS011;8192;53.596;10.166;2023-07-31T07:03:25;23.33;;;21.58;;
16171;SDS011;8192;53.596;10.166;2023-07-31T07:05:52;23.38;;;21.58;;
16171;SDS011;8192;53.596;10.166;2023-07-31T07:08:20;24.15;;;22.35;;
16171;SDS011;8192;53.596;10.166;2023-07-31T07:10:47;23.52;;;21.83;;
16171;SDS011;8192;53.596;10.166;2023-07-31T07:13:14;23.08;;;21.38;;
16171;SDS011;8192;53.596;10.166;2023-07-31T07:15:43;23.80;;;21.70;;
16171;SDS011;8192;53.596;10.166;2023-07-31T07:18:14;23.20;;;21.40;;
16171;SDS011;8192;53.596;10.166;2023-07-31T07:20:45;23.45;;;21.55;;
16171;SDS011;8192;53.596;10.166;2023-07-31T07:23:12;23.55;;;21.85;;
16171;SDS011;8192;53.596;10.166;2023-07-31T07:25:46;23.55;;;21.75;;
16171;SDS011;8192;53.596;10.166;2023-07-31T07:28:13;23.95;;;22.15;;
16171;SDS011;8192;53.596;10.166;2023-07-31T07:30:40;24.08;;;22.10;;
16171;SDS011;8192;53.596;10.166;2023-07-31T07:33:07;23.63;;;21.92;;
16171;SDS011;8192;53.596;10.166;2023-07-31T07:35:36;24.02;;;22.17;;
16171;SDS011;8192;53.596;10.166;2023-07-31T07:38:05;23.58;;;21.88;;
16171;SDS011;8192;53.596;10.166;2023-07-31T07:40:32;23.67;;;21.95;;
16171;SDS011;8192;53.596;10.166;2023-07-31T07:43:00;23.67;;;21.88;;
16171;SDS011;8192;53.596;10.166;2023-07-31T07:45:27;23.52;;;21.73;;
16171;SDS011;8192;53.596;10.166;2023-07-31T07:47:54;23.33;;;21.52;;
16171;SDS011;8192;53.596;10.166;2023-07-31T07:50:22;23.17;;;21.38;;
16171;SDS011;8192;53.596;10.166;2023-07-31T07:52:49;23.35;;;21.55;;
16171;SDS011;8192;53.596;10.166;2023-07-31T07:55:17;23.63;;;21.65;;
16171;SDS011;8192;53.596;10.166;2023-07-31T07:57:44;23.58;;;21.77;;
16171;SDS011;8192;53.596;10.166;2023-07-31T08:00:13;23.30;;;21.50;;
16171;SDS011;8192;53.596;10.166;2023-07-31T08:02:40;23.65;;;21.85;;
16171;SDS011;8192;53.596;10.166;2023-07-31T08:05:08;23.00;;;21.30;;
16171;SDS011;8192;53.596;10.166;2023-07-31T08:07:35;23.58;;;21.88;;
16171;SDS011;8192;53.596;10.166;2023-07-31T08:10:02;23.20;;;21.50;;
16171;SDS011;8192;53.596;10.166;2023-07-31T08:12:29;23.55;;;21.75;;
16171;SDS011;8192;53.596;10.166;2023-07-31T08:14:56;22.92;;;21.30;;
16171;SDS011;8192;53.596;10.166;2023-07-31T08:17:24;22.92;;;21.25;;
16171;SDS011;8192;53.596;10.166;2023-07-31T08:19:51;22.63;;;21.00;;
16171;SDS011;8192;53.596;10.166;2023-07-31T08:22:18;22.40;;;20.70;;
16171;SDS011;8192;53.596;10.166;2023-07-31T08:24:45;23.13;;;21.25;;
16171;SDS011;8192;53.596;10.166;2023-07-31T08:27:12;22.80;;;21.20;;
16171;SDS011;8192;53.596;10.166;2023-07-31T08:29:38;22.23;;;20.70;;
16171;SDS011;8192;53.596;10.166;2023-07-31T08:32:06;22.83;;;21.15;;
16171;SDS011;8192;53.596;10.166;2023-07-31T08:34:34;22.65;;;20.85;;
16171;SDS011;8192;53.596;10.166;2023-07-31T08:37:01;22.38;;;20.75;;
16171;SDS011;8192;53.596;10.166;2023-07-31T08:39:28;22.73;;;21.02;;
16171;SDS011;8192;53.596;10.166;2023-07-31T08:41:57;22.17;;;20.58;;
16171;SDS011;8192;53.596;10.166;2023-07-31T08:44:25;21.92;;;20.30;;
16171;SDS011;8192;53.596;10.166;2023-07-31T08:46:52;22.55;;;20.85;;
16171;SDS011;8192;53.596;10.166;2023-07-31T08:49:20;22.92;;;21.13;;
16171;SDS011;8192;53.596;10.166;2023-07-31T08:51:53;22.65;;;20.88;;
16171;SDS011;8192;53.596;10.166;2023-07-31T08:54:23;21.98;;;20.38;;
16171;SDS011;8192;53.596;10.166;2023-07-31T08:56:54;22.88;;;21.15;;
16171;SDS011;8192;53.596;10.166;2023-07-31T08:59:22;22.70;;;21.10;;
16171;SDS011;8192;53.596;10.166;2023-07-31T09:01:51;21.95;;;20.35;;
16171;SDS011;8192;53.596;10.166;2023-07-31T09:04:21;22.85;;;21.05;;
16171;SDS011;8192;53.596;10.166;2023-07-31T09:06:51;22.20;;;20.50;;
16171;SDS011;8192;53.596;10.166;2023-07-31T09:09:23;22.20;;;20.60;;
16171;SDS011;8192;53.596;10.166;2023-07-31T09:11:50;22.08;;;20.42;;
16171;SDS011;8192;53.596;10.166;2023-07-31T09:14:17;22.60;;;20.80;;
16171;SDS011;8192;53.596;10.166;2023-07-31T09:16:52;22.52;;;20.88;;
16171;SDS011;8192;53.596;10.166;2023-07-31T09:19:26;23.27;;;21.58;;
16171;SDS011;8192;53.596;10.166;2023-07-31T09:21:55;22.95;;;21.25;;
16171;SDS011;8192;53.596;10.166;2023-07-31T09:24:26;21.92;;;20.33;;
16171;SDS011;8192;53.596;10.166;2023-07-31T09:26:54;22.33;;;20.73;;
16171;SDS011;8192;53.596;10.166;2023-07-31T09:29:25;22.67;;;21.02;;
16171;SDS011;8192;53.596;10.166;2023-07-31T09:31:53;23.05;;;21.00;;
16171;SDS011;8192;53.596;10.166;2023-07-31T09:34:20;22.33;;;20.52;;
16171;SDS011;8192;53.596;10.166;2023-07-31T09:36:57;21.73;;;20.13;;
16171;SDS011;8192;53.596;10.166;2023-07-31T09:39:29;21.67;;;20.08;;
16171;SDS011;8192;53.596;10.166;2023-07-31T09:41:56;21.73;;;20.10;;
16171;SDS011;8192;53.596;10.166;2023-07-31T09:44:32;21.25;;;19.65;;
16171;SDS011;8192;53.596;10.166;2023-07-31T09:47:04;21.10;;;19.50;;
16171;SDS011;8192;53.596;10.166;2023-07-31T09:49:31;21.50;;;19.90;;
16171;SDS011;8192;53.596;10.166;2023-07-31T09:52:00;21.30;;;19.70;;
16171;SDS011;8192;53.596;10.166;2023-07-31T09:54:27;21.17;;;19.48;;
16171;SDS011;8192;53.596;10.166;2023-07-31T09:56:56;20.80;;;19.20;;
16171;SDS011;8192;53.596;10.166;2023-07-31T09:59:25;21.17;;;19.58;;
16171;SDS011;8192;53.596;10.166;2023-07-31T10:01:52;21.52;;;19.92;;
16171;SDS011;8192;53.596;10.166;2023-07-31T10:04:22;21.23;;;19.63;;
16171;SDS011;8192;53.596;10.166;2023-07-31T10:06:53;20.65;;;19.15;;
16171;SDS011;8192;53.596;10.166;2023-07-31T10:09:22;20.63;;;19.08;;
16171;SDS011;8192;53.596;10.166;2023-07-31T10:11:53;20.60;;;19.10;;
16171;SDS011;8192;53.596;10.166;2023-07-31T10:14:25;20.90;;;19.35;;
16171;SDS011;8192;53.596;10.166;2023-07-31T10:16:53;21.73;;;20.02;;
16171;SDS011;8192;53.596;10.166;2023-07-31T10:19:21;21.08;;;19.48;;
16171;SDS011;8192;53.596;10.166;2023-07-31T10:21:48;21.80;;;20.15;;
16171;SDS011;8192;53.596;10.166;2023-07-31T10:24:16;21.75;;;20.05;;
16171;SDS011;8192;53.596;10.166;2023-07-31T10:26:45;21.70;;;20.10;;
16171;SDS011;8192;53.596;10.166;2023-07-31T10:29:15;21.65;;;20.05;;
16171;SDS011;8192;53.596;10.166;2023-07-31T10:31:44;21.98;;;20.17;;
16171;SDS011;8192;53.596;10.166;2023-07-31T10:34:12;21.67;;;20.17;;
16171;SDS011;8192;53.596;10.166;2023-07-31T10:36:40;21.48;;;19.88;;
16171;SDS011;8192;53.596;10.166;2023-07-31T10:39:11;21.42;;;19.92;;
16171;SDS011;8192;53.596;10.166;2023-07-31T10:44:55;21.75;;;20.15;;
16171;SDS011;8192;53.596;10.166;2023-07-31T10:47:23;21.42;;;19.88;;
16171;SDS011;8192;53.596;10.166;2023-07-31T10:49:51;22.52;;;20.92;;
16171;SDS011;8192;53.596;10.166;2023-07-31T10:52:21;21.75;;;20.15;;
16171;SDS011;8192;53.596;10.166;2023-07-31T10:57:46;21.67;;;20.08;;
16171;SDS011;8192;53.596;10.166;2023-07-31T11:00:22;21.90;;;20.30;;
16171;SDS011;8192;53.596;10.166;2023-07-31T11:02:58;22.05;;;20.45;;
16171;SDS011;8192;53.596;10.166;2023-07-31T11:08:29;21.65;;;20.05;;
16171;SDS011;8192;53.596;10.166;2023-07-31T11:11:07;22.42;;;20.73;;
16171;SDS011;8192;53.596;10.166;2023-07-31T11:13:41;22.55;;;20.75;;
16171;SDS011;8192;53.596;10.166;2023-07-31T11:16:09;21.65;;;20.08;;
16171;SDS011;8192;53.596;10.166;2023-07-31T11:18:38;21.88;;;20.27;;
16171;SDS011;8192;53.596;10.166;2023-07-31T11:21:07;22.10;;;20.50;;
16171;SDS011;8192;53.596;10.166;2023-07-31T11:23:36;22.33;;;20.67;;
16171;SDS011;8192;53.596;10.166;2023-07-31T11:26:04;22.73;;;20.92;;
16171;SDS011;8192;53.596;10.166;2023-07-31T11:28:32;22.58;;;20.88;;
16171;SDS011;8192;53.596;10.166;2023-07-31T11:31:01;23.05;;;21.35;;
16171;SDS011;8192;53.596;10.166;2023-07-31T11:33:29;23.42;;;21.65;;
16171;SDS011;8192;53.596;10.166;2023-07-31T11:35:57;23.42;;;21.63;;
16171;SDS011;8192;53.596;10.166;2023-07-31T11:38:25;23.48;;;21.67;;
16171;SDS011;8192;53.596;10.166;2023-07-31T11:40:53;24.70;;;22.60;;
16171;SDS011;8192;53.596;10.166;2023-07-31T11:43:22;24.38;;;22.27;;
16171;SDS011;8192;53.596;10.166;2023-07-31T11:45:50;24.98;;;22.75;;
16171;SDS011;8192;53.596;10.166;2023-07-31T11:48:20;25.88;;;23.52;;
16171;SDS011;8192;53.596;10.166;2023-07-31T11:50:48;25.83;;;23.48;;
16171;SDS011;8192;53.596;10.166;2023-07-31T11:53:19;26.15;;;23.77;;
16171;SDS011;8192;53.596;10.166;2023-07-31T11:55:50;25.90;;;23.70;;
16171;SDS011;8192;53.596;10.166;2023-07-31T11:58:17;24.95;;;22.85;;
16171;SDS011;8192;53.596;10.166;2023-07-31T12:00:45;24.52;;;22.40;;
16171;SDS011;8192;53.596;10.166;2023-07-31T12:03:12;23.58;;;21.58;;
16171;SDS011;8192;53.596;10.166;2023-07-31T12:05:41;21.92;;;20.05;;
16171;SDS011;8192;53.596;10.166;2023-07-31T12:08:08;20.77;;;19.20;;
16171;SDS011;8192;53.596;10.166;2023-07-31T12:10:37;20.73;;;19.08;;
16171;SDS011;8192;53.596;10.166;2023-07-31T12:13:08;20.77;;;19.02;;
16171;SDS011;8192;53.596;10.166;2023-07-31T12:15:39;20.33;;;18.77;;
16171;SDS011;8192;53.596;10.166;2023-07-31T12:18:09;20.30;;;18.70;;
16171;SDS011;8192;53.596;10.166;2023-07-31T12:20:41;20.38;;;18.77;;
16171;SDS011;8192;53.596;10.166;2023-07-31T12:23:13;20.15;;;18.55;;
16171;SDS011;8192;53.596;10.166;2023-07-31T12:25:41;20.50;;;19.00;;
16171;SDS011;8192;53.596;10.166;2023-07-31T12:28:08;21.05;;;19.45;;
16171;SDS011;8192;53.596;10.166;2023-07-31T12:30:38;20.80;;;19.20;;
16171;SDS011;8192;53.596;10.166;2023-07-31T12:33:06;20.20;;;18.60;;
16171;SDS011;8192;53.596;10.166;2023-07-31T12:35:39;20.23;;;18.73;;
16171;SDS011;8192;53.596;10.166;2023-07-31T12:38:10;20.40;;;18.90;;
16171;SDS011;8192;53.596;10.166;2023-07-31T12:40:38;20.20;;;18.70;;
16171;SDS011;8192;53.596;10.166;2023-07-31T12:43:05;19.98;;;18.48;;
16171;SDS011;8192;53.596;10.166;2023-07-31T12:45:33;19.98;;;18.42;;
16171;SDS011;8192;53.596;10.166;2023-07-31T12:48:01;19.77;;;18.00;;
16171;SDS011;8192;53.596;10.166;2023-07-31T12:50:28;19.85;;;18.15;;
16171;SDS011;8192;53.596;10.166;2023-07-31T12:52:57;18.95;;;17.55;;
16171;SDS011;8192;53.596;10.166;2023-07-31T12:55:24;19.38;;;17.88;;
16171;SDS011;8192;53.596;10.166;2023-07-31T12:57:51;19.35;;;17.85;;
16171;SDS011;8192;53.596;10.166;2023-07-31T13:00:18;20.35;;;18.65;;
16171;SDS011;8192;53.596;10.166;2023-07-31T13:02:46;20.17;;;18.58;;
16171;SDS011;8192;53.596;10.166;2023-07-31T13:05:14;19.50;;;17.88;;
16171;SDS011;8192;53.596;10.166;2023-07-31T13:07:41;19.77;;;18.27;;
16171;SDS011;8192;53.596;10.166;2023-07-31T13:10:09;20.60;;;18.70;;
16171;SDS011;8192;53.596;10.166;2023-07-31T13:12:36;19.95;;;18.35;;
16171;SDS011;8192;53.596;10.166;2023-07-31T13:15:10;20.08;;;18.40;;
16171;SDS011;8192;53.596;10.166;2023-07-31T13:17:37;19.67;;;18.17;;
16171;SDS011;8192;53.596;10.166;2023-07-31T13:20:05;20.08;;;18.48;;
16171;SDS011;8192;53.596;10.166;2023-07-31T13:22:33;19.52;;;18.02;;
16171;SDS011;8192;53.596;10.166;2023-07-31T13:25:00;19.65;;;18.15;;
16171;SDS011;8192;53.596;10.166;2023-07-31T13:27:29;20.10;;;18.50;;
16171;SDS011;8192;53.596;10.166;2023-07-31T13:29:56;20.17;;;18.58;;
16171;SDS011;8192;53.596;10.166;2023-07-31T13:32:23;20.00;;;18.40;;
16171;SDS011;8192;53.596;10.166;2023-07-31T13:34:51;19.90;;;18.30;;
16171;SDS011;8192;53.596;10.166;2023-07-31T13:37:18;20.15;;;18.65;;
16171;SDS011;8192;53.596;10.166;2023-07-31T13:39:45;19.52;;;18.02;;
16171;SDS011;8192;53.596;10.166;2023-07-31T13:42:12;19.67;;;17.98;;
16171;SDS011;8192;53.596;10.166;2023-07-31T13:44:42;19.90;;;18.40;;
16171;SDS011;8192;53.596;10.166;2023-07-31T13:47:09;19.73;;;18.13;;
16171;SDS011;8192;53.596;10.166;2023-07-31T13:49:36;20.42;;;18.58;;
16171;SDS011;8192;53.596;10.166;2023-07-31T13:52:04;19.40;;;17.80;;
16171;SDS011;8192;53.596;10.166;2023-07-31T13:54:31;19.25;;;17.75;;
16171;SDS011;8192;53.596;10.166;2023-07-31T13:56:58;19.95;;;18.33;;
16171;SDS011;8192;53.596;10.166;2023-07-31T13:59:26;20.42;;;18.73;;
16171;SDS011;8192;53.596;10.166;2023-07-31T14:01:55;19.98;;;18.27;;
16171;SDS011;8192;53.596;10.166;2023-07-31T14:04:22;20.35;;;18.67;;
16171;SDS011;8192;53.596;10.166;2023-07-31T14:06:49;20.10;;;18.50;;
16171;SDS011;8192;53.596;10.166;2023-07-31T14:09:16;20.60;;;19.00;;
16171;SDS011;8192;53.596;10.166;2023-07-31T14:11:44;20.20;;;18.58;;
16171;SDS011;8192;53.596;10.166;2023-07-31T14:14:11;20.30;;;18.50;;
16171;SDS011;8192;53.596;10.166;2023-07-31T14:16:38;20.45;;;18.75;;
16171;SDS011;8192;53.596;10.166;2023-07-31T14:19:07;19.58;;;17.95;;
16171;SDS011;8192;53.596;10.166;2023-07-31T14:21:36;19.70;;;18.10;;
16171;SDS011;8192;53.596;10.166;2023-07-31T14:24:03;19.30;;;17.67;;
16171;SDS011;8192;53.596;10.166;2023-07-31T14:26:31;19.50;;;18.00;;
16171;SDS011;8192;53.596;10.166;2023-07-31T14:28:58;20.35;;;18.55;;
16171;SDS011;8192;53.596;10.166;2023-07-31T14:31:25;19.65;;;18.15;;
16171;SDS011;8192;53.596;10.166;2023-07-31T14:33:52;19.98;;;18.38;;
16171;SDS011;8192;53.596;10.166;2023-07-31T14:36:20;19.55;;;17.85;;